Time;durP1;ratioP1;P1;durP2;ratioP2;P2;SDS_P1;SDS_P2;PMS_P1;PMS_P2;Temp;Humidity;BMP_temperature;BMP_pressure;BME280_temperature;BME280_humidity;BME280_pressure;Samples;Min_cycle;Max_cycle;Signal;HPM_P1;HPM_P2
2022/01/06 00:00:14;;;;;;;9.93;3.08;;;;;;;0.80;80.67;97126.31;5025968;28;20049;-63
2022/01/06 00:02:42;;;;;;;8.00;2.60;;;;;;;0.83;80.71;97136.59;5026721;28;20045;-64
2022/01/06 00:05:09;;;;;;;8.68;2.50;;;;;;;0.84;80.51;97132.91;5031480;28;20041;-64
2022/01/06 00:07:36;;;;;;;7.03;2.45;;;;;;;0.75;81.03;97139.41;5026753;28;20057;-64
2022/01/06 00:10:05;;;;;;;5.22;2.58;;;;;;;0.77;81.07;97124.88;5026664;28;20041;-63
2022/01/06 00:12:44;;;;;;;6.15;2.30;;;;;;;0.81;80.63;97130.63;5026534;28;20037;-63
2022/01/06 00:25:46;;;;;;;8.50;2.45;;;;;;;0.95;79.78;97138.72;5026812;28;20057;-64
2022/01/06 00:28:13;;;;;;;8.95;3.05;;;;;;;0.78;81.00;97139.84;5026321;28;20042;-64
2022/01/06 00:30:40;;;;;;;8.85;3.17;;;;;;;0.84;80.68;97135.56;5027003;28;20038;-63
2022/01/06 00:33:07;;;;;;;10.77;3.15;;;;;;;0.81;80.73;97140.47;5027338;28;20045;-64
2022/01/06 00:35:33;;;;;;;6.43;2.33;;;;;;;0.97;80.30;97134.84;5026417;28;20508;-63
2022/01/06 00:38:00;;;;;;;7.93;3.47;;;;;;;0.88;80.52;97131.50;4985947;28;1154769;-63
2022/01/06 00:40:27;;;;;;;8.55;2.78;;;;;;;0.97;80.18;97126.00;5027044;28;20033;-64
2022/01/06 00:42:54;;;;;;;11.48;2.90;;;;;;;1.04;79.50;97116.22;5026801;28;20052;-63
2022/01/06 00:45:20;;;;;;;4.15;1.77;;;;;;;1.10;79.10;97134.06;5027145;28;20050;-63
2022/01/06 00:47:47;;;;;;;6.25;2.45;;;;;;;1.11;78.70;97126.91;5026819;28;20045;-64
2022/01/06 00:50:14;;;;;;;14.35;2.78;;;;;;;1.13;79.14;97135.53;5027200;28;20060;-63
2022/01/06 00:52:40;;;;;;;6.55;2.42;;;;;;;1.05;79.59;97139.19;5026778;28;20044;-63
2022/01/06 00:55:07;;;;;;;5.95;2.35;;;;;;;1.02;79.88;97139.56;5027584;28;20045;-64
2022/01/06 00:57:34;;;;;;;4.47;2.10;;;;;;;0.98;79.51;97144.47;5026634;28;20109;-64
2022/01/06 01:00:00;;;;;;;8.23;2.78;;;;;;;0.93;80.15;97149.56;5026966;28;20045;-63
2022/01/06 01:02:27;;;;;;;7.85;2.28;;;;;;;0.99;79.79;97142.66;5026763;28;20049;-64
2022/01/06 01:04:54;;;;;;;8.75;2.90;;;;;;;0.99;79.45;97145.31;5029183;28;20073;-64
2022/01/06 01:07:21;;;;;;;7.18;2.05;;;;;;;1.01;79.64;97149.44;5027539;28;20041;-63
2022/01/06 01:09:47;;;;;;;8.57;2.45;;;;;;;1.10;79.70;97157.28;5026901;28;20057;-64
2022/01/06 01:12:14;;;;;;;7.15;2.35;;;;;;;1.14;79.67;97161.19;5025998;28;20551;-64
2022/01/06 01:15:06;;;;;;;7.40;2.90;;;;;;;0.99;80.94;97163.97;5026929;28;20034;-64
2022/01/06 01:17:30;;;;;;;6.45;2.90;;;;;;;0.89;82.32;97161.66;5026257;28;20045;-64
2022/01/06 01:19:57;;;;;;;7.70;2.45;;;;;;;0.83;81.66;97173.91;5026863;28;20046;-64
2022/01/06 01:22:24;;;;;;;6.65;2.65;;;;;;;0.87;81.22;97169.84;5025800;28;20049;-64
2022/01/06 01:24:50;;;;;;;10.35;3.28;;;;;;;0.89;82.16;97174.97;5025359;28;20053;-63
2022/01/06 01:27:21;;;;;;;7.35;2.40;;;;;;;0.94;82.27;97175.22;5025206;28;20072;-64
2022/01/06 01:30:02;;;;;;;12.32;3.33;;;;;;;0.87;83.18;97180.50;5026356;28;20041;-64
2022/01/06 01:32:33;;;;;;;6.28;2.38;;;;;;;0.72;83.78;97175.28;5026323;28;20045;-64
2022/01/06 01:35:01;;;;;;;6.10;2.30;;;;;;;0.64;84.63;97173.56;5026265;28;20037;-63
2022/01/06 01:37:31;;;;;;;6.38;2.67;;;;;;;0.71;84.27;97170.97;5026488;28;20428;-64
2022/01/06 01:39:59;;;;;;;11.45;2.67;;;;;;;0.66;84.65;97180.56;5025690;28;20034;-64
2022/01/06 01:42:27;;;;;;;7.60;3.25;;;;;;;0.67;84.44;97179.53;5025049;28;20393;-63
2022/01/06 01:44:54;;;;;;;5.53;2.38;;;;;;;0.73;84.32;97178.75;5026359;28;20038;-64
2022/01/06 01:47:39;;;;;;;6.88;2.25;;;;;;;0.74;84.06;97189.22;5026239;28;20117;-63
2022/01/06 01:52:53;;;;;;;5.53;2.50;;;;;;;0.87;83.36;97188.50;5025891;28;20041;-63
2022/01/06 01:55:32;;;;;;;9.90;2.70;;;;;;;0.82;84.01;97196.25;5025305;28;20038;-64
2022/01/06 01:58:00;;;;;;;6.65;2.30;;;;;;;0.84;83.02;97194.22;5041348;28;20052;-64
2022/01/06 02:00:28;;;;;;;6.63;2.70;;;;;;;0.93;83.25;97191.41;5031085;28;20037;-63
2022/01/06 02:02:58;;;;;;;6.45;2.53;;;;;;;0.91;83.03;97196.91;5025142;28;20119;-63
2022/01/06 02:05:26;;;;;;;6.95;2.58;;;;;;;0.84;83.19;97183.53;5020816;28;20129;-63
2022/01/06 02:07:56;;;;;;;8.95;2.95;;;;;;;0.86;83.49;97189.53;5023924;28;20061;-64
2022/01/06 02:10:22;;;;;;;6.68;3.05;;;;;;;0.80;83.47;97189.47;5029218;28;20128;-64
2022/01/06 02:12:51;;;;;;;5.32;2.70;;;;;;;0.88;83.60;97191.97;5024944;28;20049;-64
2022/01/06 02:15:17;;;;;;;4.72;2.33;;;;;;;0.89;83.11;97190.97;5025881;28;20117;-64
2022/01/06 02:17:44;;;;;;;7.05;2.75;;;;;;;0.76;84.27;97189.03;5024322;28;20053;-64
2022/01/06 02:20:14;;;;;;;9.98;2.90;;;;;;;0.85;83.55;97197.72;5024611;28;20049;-64
2022/01/06 02:22:42;;;;;;;9.38;2.70;;;;;;;0.82;82.99;97203.41;5024838;28;20065;-64
2022/01/06 02:25:19;;;;;;;8.98;2.88;;;;;;;0.85;84.05;97198.50;5025298;28;20037;-64
2022/01/06 02:27:50;;;;;;;5.55;2.50;;;;;;;0.86;82.62;97202.03;5025487;28;20045;-64
2022/01/06 02:30:18;;;;;;;6.93;2.08;;;;;;;0.87;82.63;97204.50;5024266;28;20051;-64
2022/01/06 02:32:46;;;;;;;8.65;2.35;;;;;;;0.87;82.29;97212.50;5025776;28;20041;-63
2022/01/06 02:35:15;;;;;;;6.78;2.67;;;;;;;0.86;82.70;97210.84;5025658;28;20056;-64
2022/01/06 02:37:42;;;;;;;6.82;3.05;;;;;;;0.83;82.72;97211.22;5025870;28;20048;-63
2022/01/06 02:40:18;;;;;;;10.02;2.60;;;;;;;0.89;82.17;97207.78;5025712;28;20049;-64
2022/01/06 02:42:51;;;;;;;9.40;2.97;;;;;;;0.94;82.18;97212.53;5024617;28;20527;-63
2022/01/06 02:45:20;;;;;;;9.15;4.03;;;;;;;0.85;82.77;97213.72;5025713;28;20029;-63
2022/01/06 02:47:47;;;;;;;6.55;2.65;;;;;;;0.89;82.97;97206.97;5025457;28;20504;-63
2022/01/06 02:50:17;;;;;;;10.93;3.47;;;;;;;0.87;82.91;97204.50;5028741;28;20048;-63
2022/01/06 02:52:43;;;;;;;4.45;2.95;;;;;;;0.91;83.06;97220.91;5030573;28;20052;-63
2022/01/06 02:55:12;;;;;;;5.85;2.67;;;;;;;0.97;82.34;97229.97;5024670;28;20048;-63
2022/01/06 02:57:40;;;;;;;6.63;2.97;;;;;;;1.01;81.96;97225.91;5024039;28;20060;-63
2022/01/06 03:00:12;;;;;;;6.95;2.88;;;;;;;1.16;81.80;97239.97;5025150;28;20056;-64
2022/01/06 03:02:41;;;;;;;8.27;2.35;;;;;;;1.12;81.27;97241.38;5025516;28;20068;-63
2022/01/06 03:05:08;;;;;;;7.30;2.10;;;;;;;1.10;82.20;97242.59;5028524;28;20068;-63
2022/01/06 03:07:35;;;;;;;5.90;3.08;;;;;;;1.05;83.13;97245.84;5024013;28;20448;-63
2022/01/06 03:10:04;;;;;;;6.55;2.70;;;;;;;0.83;84.36;97261.03;5024872;28;20051;-63
2022/01/06 03:12:39;;;;;;;9.52;2.83;;;;;;;0.74;85.23;97260.38;5024395;28;20045;-63
2022/01/06 03:15:07;;;;;;;8.07;3.17;;;;;;;0.59;86.47;97263.09;5025430;28;20509;-63
2022/01/06 03:17:36;;;;;;;9.18;3.03;;;;;;;0.44;87.48;97260.50;5025168;28;20519;-64
2022/01/06 03:20:04;;;;;;;8.63;2.60;;;;;;;0.54;87.41;97274.31;5023076;28;20053;-64
2022/01/06 03:22:31;;;;;;;6.18;2.85;;;;;;;0.46;87.24;97269.94;5024172;28;20571;-63
2022/01/06 03:24:58;;;;;;;6.10;3.08;;;;;;;0.50;88.13;97270.38;5024131;28;20551;-63
2022/01/06 03:27:25;;;;;;;5.47;2.70;;;;;;;0.57;87.04;97270.44;5024796;28;20119;-63
2022/01/06 03:29:52;;;;;;;10.93;3.65;;;;;;;0.60;86.69;97270.91;5025200;28;20041;-64
2022/01/06 03:32:19;;;;;;;6.70;2.97;;;;;;;0.62;86.83;97281.34;5028455;28;20052;-64
2022/01/06 03:34:47;;;;;;;7.05;2.75;;;;;;;0.64;86.64;97277.50;5027667;28;20524;-64
2022/01/06 03:37:14;;;;;;;8.15;2.75;;;;;;;0.69;86.19;97287.56;5027767;28;20504;-64
2022/01/06 03:39:42;;;;;;;4.90;2.22;;;;;;;0.80;85.81;97291.56;5014968;28;20041;-63
2022/01/06 03:42:10;;;;;;;7.65;3.08;;;;;;;0.70;86.67;97285.75;5028653;28;20401;-64
2022/01/06 03:44:37;;;;;;;8.10;3.38;;;;;;;0.70;85.97;97291.06;5028365;28;20045;-63
2022/01/06 03:47:05;;;;;;;14.73;4.07;;;;;;;0.73;86.18;97288.00;5028622;28;20042;-63
2022/01/06 03:49:32;;;;;;;6.28;2.83;;;;;;;0.78;85.08;97299.75;5027933;28;20052;-64
2022/01/06 03:51:59;;;;;;;8.63;3.30;;;;;;;0.84;85.77;97287.50;5028291;28;20248;-64
2022/01/06 03:54:26;;;;;;;8.73;2.97;;;;;;;0.82;86.19;97286.88;5028289;28;20041;-63
2022/01/06 03:56:52;;;;;;;7.50;2.55;;;;;;;0.75;86.39;97291.31;5027675;28;20037;-63
2022/01/06 03:59:19;;;;;;;7.72;3.25;;;;;;;0.79;85.55;97295.25;5028654;28;20048;-64
2022/01/06 04:01:46;;;;;;;6.53;2.85;;;;;;;0.85;85.13;97293.69;5027832;28;20048;-63
2022/01/06 04:04:14;;;;;;;5.35;2.80;;;;;;;0.89;85.09;97294.94;5026658;28;20056;-64
2022/01/06 04:06:41;;;;;;;11.75;3.55;;;;;;;0.79;85.16;97295.25;5031711;28;20052;-64
2022/01/06 04:09:08;;;;;;;9.70;3.20;;;;;;;0.67;85.93;97288.78;5026836;28;20049;-63
2022/01/06 04:11:35;;;;;;;8.05;3.80;;;;;;;0.63;86.48;97289.16;5027773;28;20052;-64
2022/01/06 04:14:01;;;;;;;7.47;3.28;;;;;;;0.69;86.42;97290.25;5027793;28;20049;-63
2022/01/06 04:16:29;;;;;;;7.82;3.80;;;;;;;0.63;86.64;97297.16;5028107;28;20041;-64
2022/01/06 04:18:56;;;;;;;12.07;3.65;;;;;;;0.61;86.57;97298.38;5027622;28;20634;-64
2022/01/06 04:21:23;;;;;;;10.38;3.95;;;;;;;0.57;86.61;97297.94;5026081;28;20059;-64
2022/01/06 04:23:49;;;;;;;9.07;4.50;;;;;;;0.60;87.13;97289.56;5027696;28;20053;-64
2022/01/06 04:26:16;;;;;;;6.43;3.08;;;;;;;0.54;87.33;97297.47;5027088;28;20037;-63
2022/01/06 04:28:43;;;;;;;7.60;3.25;;;;;;;0.56;87.22;97293.63;5027958;28;20067;-63
2022/01/06 04:31:10;;;;;;;10.77;3.33;;;;;;;0.60;87.27;97308.22;5033385;28;20536;-63
2022/01/06 04:33:37;;;;;;;9.90;3.53;;;;;;;0.54;87.26;97308.94;5023117;28;20049;-63
2022/01/06 04:36:04;;;;;;;12.02;4.15;;;;;;;0.51;87.88;97309.31;5027606;28;20072;-64
2022/01/06 04:38:33;;;;;;;10.98;4.53;;;;;;;0.46;88.47;97312.56;5027528;28;20072;-64
2022/01/06 04:40:59;;;;;;;12.20;4.05;;;;;;;0.45;88.00;97312.75;5027320;28;20049;-64
2022/01/06 04:43:26;;;;;;;10.15;3.80;;;;;;;0.47;88.51;97322.22;5026575;28;20053;-64
2022/01/06 04:45:53;;;;;;;10.93;4.13;;;;;;;0.47;88.02;97324.88;5027462;28;20120;-64
2022/01/06 04:48:19;;;;;;;6.18;3.03;;;;;;;0.49;88.19;97320.19;5027152;28;20049;-64
2022/01/06 04:50:46;;;;;;;11.25;3.78;;;;;;;0.49;88.53;97327.34;5025515;28;20094;-64
2022/01/06 04:53:13;;;;;;;14.75;4.13;;;;;;;0.51;87.66;97323.47;5027366;28;20061;-63
2022/01/06 04:55:39;;;;;;;5.60;3.60;;;;;;;0.54;87.80;97322.28;5018709;28;20439;-64
2022/01/06 04:58:06;;;;;;;9.70;3.70;;;;;;;0.57;87.23;97313.91;5027082;28;20049;-64
2022/01/06 05:00:33;;;;;;;7.00;2.80;;;;;;;0.60;87.00;97326.88;5026952;28;20493;-64
2022/01/06 05:02:59;;;;;;;6.07;2.83;;;;;;;0.60;87.30;97334.84;5026877;28;20045;-64
2022/01/06 05:05:26;;;;;;;8.90;3.45;;;;;;;0.56;87.36;97333.59;5026376;28;20051;-64
2022/01/06 05:07:53;;;;;;;7.45;3.38;;;;;;;0.52;86.99;97340.31;5026694;28;20069;-64
2022/01/06 05:10:19;;;;;;;5.90;3.13;;;;;;;0.52;87.30;97335.78;5026734;28;20053;-64
2022/01/06 05:12:46;;;;;;;11.88;3.88;;;;;;;0.52;87.22;97334.97;5026697;28;20078;-64
2022/01/06 05:15:13;;;;;;;7.95;3.03;;;;;;;0.51;87.52;97344.78;5026839;28;20076;-64
2022/01/06 05:17:41;;;;;;;13.25;3.67;;;;;;;0.47;87.53;97350.69;5027049;28;20041;-63
2022/01/06 05:20:08;;;;;;;9.07;3.70;;;;;;;0.45;87.60;97353.56;5033996;28;20548;-64
2022/01/06 05:22:41;;;;;;;9.02;3.78;;;;;;;0.39;86.77;97346.28;5027306;28;20067;-64
2022/01/06 05:25:09;;;;;;;5.63;2.78;;;;;;;0.33;86.54;97344.38;5026359;28;20045;-64
2022/01/06 05:27:36;;;;;;;7.75;3.28;;;;;;;0.27;87.22;97356.63;5025132;28;20054;-64
2022/01/06 05:30:04;;;;;;;11.02;2.88;;;;;;;0.25;87.25;97358.63;5026657;28;20061;-64
2022/01/06 05:32:31;;;;;;;7.60;3.45;;;;;;;0.24;87.13;97351.66;5025965;28;20374;-63
2022/01/06 05:34:57;;;;;;;7.45;3.83;;;;;;;0.27;87.28;97361.94;5026340;28;20052;-63
2022/01/06 05:37:24;;;;;;;11.73;3.65;;;;;;;0.32;87.40;97364.03;5026401;28;20052;-64
2022/01/06 05:39:50;;;;;;;9.98;3.45;;;;;;;0.41;87.33;97370.91;5025755;28;20103;-64
2022/01/06 05:42:17;;;;;;;7.82;3.40;;;;;;;0.36;86.91;97371.47;5025854;28;20523;-63
2022/01/06 05:44:44;;;;;;;8.98;3.53;;;;;;;0.47;86.34;97374.66;5025976;28;20563;-64
2022/01/06 05:47:10;;;;;;;7.65;2.63;;;;;;;0.49;86.06;97376.16;5026300;28;20044;-64
2022/01/06 05:49:37;;;;;;;8.15;3.67;;;;;;;0.52;86.38;97378.41;5026152;28;20568;-64
2022/01/06 05:52:04;;;;;;;10.25;3.72;;;;;;;0.50;86.42;97376.94;5025064;28;20049;-63
2022/01/06 05:54:31;;;;;;;10.32;3.10;;;;;;;0.51;86.59;97383.94;5025814;28;20049;-63
2022/01/06 05:56:58;;;;;;;6.78;2.95;;;;;;;0.63;85.98;97382.44;5024197;28;20049;-64
2022/01/06 05:59:24;;;;;;;6.68;2.67;;;;;;;0.67;86.09;97388.22;5026210;28;20049;-64
2022/01/06 06:01:51;;;;;;;7.60;3.47;;;;;;;0.69;86.22;97388.00;5026247;28;20525;-64
2022/01/06 06:04:22;;;;;;;10.52;3.95;;;;;;;0.64;86.13;97394.75;5025302;28;20053;-63
2022/01/06 06:06:49;;;;;;;7.82;3.15;;;;;;;0.61;86.31;97396.97;5025014;28;20041;-64
2022/01/06 06:09:15;;;;;;;6.70;2.63;;;;;;;0.67;86.47;97401.56;5024984;28;20045;-64
2022/01/06 06:11:42;;;;;;;9.07;2.95;;;;;;;0.75;86.11;97404.09;5025765;28;20096;-64
2022/01/06 06:14:08;;;;;;;8.07;2.35;;;;;;;0.81;85.64;97402.50;5025888;28;20049;-64
2022/01/06 06:16:35;;;;;;;7.75;3.22;;;;;;;0.81;84.87;97407.84;5025295;28;20034;-64
2022/01/06 06:19:02;;;;;;;9.48;2.70;;;;;;;0.82;85.37;97409.50;5025653;28;20440;-63
2022/01/06 06:21:29;;;;;;;5.95;2.30;;;;;;;0.77;85.86;97412.72;5025428;28;20742;-64
2022/01/06 06:23:56;;;;;;;8.85;3.28;;;;;;;0.77;85.30;97414.56;5025708;28;20049;-64
2022/01/06 06:26:22;;;;;;;4.68;2.80;;;;;;;0.73;86.29;97424.78;5024481;28;20064;-63
2022/01/06 06:28:49;;;;;;;7.93;3.50;;;;;;;0.78;85.65;97426.88;5025926;28;20389;-64
2022/01/06 06:31:15;;;;;;;6.57;2.90;;;;;;;0.80;85.49;97429.38;5025449;28;20409;-64
2022/01/06 06:33:42;;;;;;;7.07;2.80;;;;;;;0.81;85.25;97433.69;5025392;28;20638;-63
2022/01/06 06:36:08;;;;;;;8.77;3.03;;;;;;;0.83;85.40;97435.16;5027793;28;20135;-64
2022/01/06 06:38:35;;;;;;;5.70;2.65;;;;;;;0.82;85.26;97433.50;5019834;28;20038;-64
2022/01/06 06:41:02;;;;;;;6.95;3.47;;;;;;;0.80;85.72;97440.03;5025127;28;20045;-65
2022/01/06 06:43:28;;;;;;;9.68;3.63;;;;;;;0.77;85.94;97431.38;5024630;28;20038;-63
2022/01/06 06:45:55;;;;;;;10.32;3.97;;;;;;;0.82;85.90;97443.31;5024600;28;20037;-64
2022/01/06 06:48:22;;;;;;;6.47;3.25;;;;;;;0.80;85.34;97446.19;5025812;28;20041;-64
2022/01/06 06:50:49;;;;;;;7.43;2.88;;;;;;;0.88;85.35;97456.72;5025665;28;20045;-64
2022/01/06 06:53:15;;;;;;;11.70;3.40;;;;;;;0.92;84.94;97456.38;5025345;28;20726;-65
2022/01/06 06:55:42;;;;;;;6.80;3.63;;;;;;;0.84;85.24;97452.78;5025400;28;20049;-64
2022/01/06 06:58:08;;;;;;;6.53;2.47;;;;;;;0.80;85.69;97448.84;5025198;28;20041;-64
2022/01/06 07:00:35;;;;;;;8.00;2.90;;;;;;;0.78;86.25;97450.88;5022362;28;20045;-64
2022/01/06 07:03:02;;;;;;;9.48;3.63;;;;;;;0.81;85.86;97453.16;5025352;28;20528;-64
2022/01/06 07:05:29;;;;;;;7.95;2.60;;;;;;;0.89;84.97;97447.72;5030228;28;20065;-64
2022/01/06 07:07:56;;;;;;;7.90;3.13;;;;;;;0.81;85.45;97460.34;5029344;28;20052;-64
2022/01/06 07:10:23;;;;;;;7.88;3.25;;;;;;;0.76;85.69;97455.56;5027778;28;20045;-64
2022/01/06 07:12:49;;;;;;;8.85;3.35;;;;;;;0.77;85.83;97463.38;5028706;28;20052;-64
2022/01/06 07:15:17;;;;;;;11.35;3.80;;;;;;;0.80;85.62;97464.84;5028793;28;20573;-65
2022/01/06 07:17:44;;;;;;;11.45;3.35;;;;;;;0.74;87.45;97469.06;5028806;28;20037;-65
2022/01/06 07:20:11;;;;;;;6.72;3.20;;;;;;;0.64;86.67;97469.38;5029121;28;20049;-66
2022/01/06 07:22:38;;;;;;;9.15;3.63;;;;;;;0.72;86.46;97476.44;5028250;28;20052;-64
2022/01/06 07:25:05;;;;;;;5.85;3.42;;;;;;;0.76;86.18;97475.06;5028282;28;20049;-65
2022/01/06 07:27:32;;;;;;;9.07;3.70;;;;;;;0.74;86.34;97479.72;5026290;28;20049;-64
2022/01/06 07:29:59;;;;;;;6.38;3.42;;;;;;;0.82;85.76;97486.81;5027051;28;20070;-64
2022/01/06 07:32:26;;;;;;;9.23;3.65;;;;;;;0.77;85.78;97481.19;5025661;28;20370;-65
2022/01/06 07:34:56;;;;;;;8.38;3.75;;;;;;;0.78;85.99;97490.88;5021728;28;20037;-64
2022/01/06 07:37:23;;;;;;;7.70;3.60;;;;;;;0.73;86.35;97483.41;5022533;28;23001;-64
2022/01/06 07:39:49;;;;;;;10.88;3.80;;;;;;;0.69;86.14;97490.13;5026971;28;20067;-62
2022/01/06 07:42:16;;;;;;;11.85;4.43;;;;;;;0.67;86.75;97494.84;5027407;28;20052;-62
2022/01/06 07:44:46;;;;;;;8.43;3.80;;;;;;;0.67;86.82;97489.50;5025760;28;20041;-62
2022/01/06 07:47:14;;;;;;;9.90;4.55;;;;;;;0.67;87.17;97497.50;5024592;28;20048;-62
2022/01/06 07:49:41;;;;;;;13.25;6.13;;;;;;;0.60;87.34;97500.06;5025927;28;21485;-63
2022/01/06 07:52:08;;;;;;;10.07;4.03;;;;;;;0.60;87.21;97508.06;5025813;28;20041;-63
2022/01/06 07:54:40;;;;;;;6.38;3.20;;;;;;;0.63;87.03;97505.00;5024721;28;20238;-63
2022/01/06 07:57:08;;;;;;;9.40;4.03;;;;;;;0.66;86.80;97511.00;5024581;28;20145;-63
2022/01/06 07:59:35;;;;;;;7.78;3.63;;;;;;;0.65;86.88;97507.50;5023751;28;20042;-63
2022/01/06 08:02:04;;;;;;;12.80;4.75;;;;;;;0.66;86.60;97508.34;5019744;28;20041;-64
2022/01/06 08:04:31;;;;;;;10.82;4.32;;;;;;;0.70;86.77;97513.09;5025559;28;20531;-63
2022/01/06 08:06:58;;;;;;;8.95;3.95;;;;;;;0.82;86.04;97518.81;5028073;28;20041;-61
2022/01/06 08:09:25;;;;;;;16.05;5.30;;;;;;;0.77;86.48;97514.03;5025608;28;20046;-65
2022/01/06 08:11:52;;;;;;;7.47;3.92;;;;;;;0.77;86.37;97523.84;5025424;28;20037;-63
2022/01/06 08:14:19;;;;;;;9.35;3.95;;;;;;;0.66;86.47;97525.13;5024872;28;20069;-65
2022/01/06 08:16:46;;;;;;;10.40;4.80;;;;;;;0.74;86.60;97529.56;5024865;28;20052;-65
2022/01/06 08:19:13;;;;;;;14.35;5.07;;;;;;;0.70;87.21;97526.41;5024899;28;20056;-64
2022/01/06 08:21:40;;;;;;;15.23;5.43;;;;;;;0.71;86.94;97538.75;5025062;28;20052;-64
2022/01/06 08:24:07;;;;;;;12.88;5.60;;;;;;;0.75;87.45;97534.72;5025292;28;20731;-65
2022/01/06 08:26:34;;;;;;;13.60;5.70;;;;;;;0.80;86.65;97534.16;5025808;28;20046;-64
2022/01/06 08:29:00;;;;;;;14.35;5.82;;;;;;;0.88;86.91;97527.88;5021290;28;20049;-65
2022/01/06 08:31:27;;;;;;;15.77;5.50;;;;;;;0.91;86.61;97530.19;5021795;28;20041;-63
2022/01/06 08:33:54;;;;;;;10.75;5.13;;;;;;;0.97;86.40;97537.44;5023281;28;20041;-64
2022/01/06 08:36:21;;;;;;;14.68;5.00;;;;;;;1.02;85.99;97535.03;5024411;28;20045;-64
2022/01/06 08:38:47;;;;;;;14.27;5.10;;;;;;;1.05;85.75;97539.19;5024427;28;20099;-64
2022/01/06 08:41:14;;;;;;;13.73;5.47;;;;;;;1.06;85.61;97537.34;5022870;28;20052;-64
2022/01/06 08:43:45;;;;;;;10.63;4.82;;;;;;;1.07;85.88;97537.13;5023190;28;20731;-64
2022/01/06 08:46:12;;;;;;;9.95;3.97;;;;;;;1.15;84.97;97545.03;5025817;28;20052;-64
2022/01/06 08:48:39;;;;;;;11.40;4.72;;;;;;;1.20;85.40;97541.81;5029770;28;20486;-64
2022/01/06 08:51:06;;;;;;;14.18;4.53;;;;;;;1.35;84.95;97554.28;5021439;28;20047;-64
2022/01/06 08:53:32;;;;;;;9.75;4.05;;;;;;;1.44;85.18;97558.50;5024932;28;20045;-64
2022/01/06 08:55:59;;;;;;;8.40;3.88;;;;;;;1.45;83.98;97553.97;5021916;28;20044;-63
2022/01/06 08:58:26;;;;;;;9.98;3.90;;;;;;;1.35;84.33;97563.13;5024988;28;20049;-64
2022/01/06 09:00:52;;;;;;;10.63;4.20;;;;;;;1.24;84.17;97572.44;5023491;28;20049;-64
2022/01/06 09:03:19;;;;;;;7.15;3.97;;;;;;;1.09;84.89;97556.47;5025128;28;20089;-63
2022/01/06 09:05:46;;;;;;;10.05;4.57;;;;;;;1.03;85.11;97565.19;5027791;28;20037;-63
2022/01/06 09:08:13;;;;;;;7.50;4.13;;;;;;;1.01;85.70;97565.41;5024595;28;20045;-63
2022/01/06 09:10:40;;;;;;;9.43;3.85;;;;;;;1.11;84.98;97570.41;5037590;28;20551;-63
2022/01/06 09:13:26;;;;;;;9.55;4.35;;;;;;;1.02;85.16;97566.19;5026128;28;20049;-63
2022/01/06 09:15:53;;;;;;;10.45;4.40;;;;;;;1.03;85.32;97575.84;5024079;28;20045;-63
2022/01/06 09:18:20;;;;;;;9.63;3.53;;;;;;;1.03;85.37;97578.53;5021096;28;20481;-63
2022/01/06 09:20:47;;;;;;;11.05;4.03;;;;;;;1.02;84.96;97582.22;5024127;28;20508;-63
2022/01/06 09:23:14;;;;;;;11.85;4.35;;;;;;;1.15;84.22;97589.56;5022899;28;20038;-64
2022/01/06 09:25:40;;;;;;;9.07;3.75;;;;;;;1.17;83.94;97591.03;5024482;28;20056;-64
2022/01/06 09:28:07;;;;;;;10.90;3.53;;;;;;;1.19;84.38;97582.00;5023785;28;20061;-62
2022/01/06 09:30:36;;;;;;;9.55;4.63;;;;;;;1.33;84.79;97588.34;5023022;28;20053;-64
2022/01/06 09:33:03;;;;;;;7.95;3.97;;;;;;;1.40;83.76;97591.91;5024048;28;20069;-63
2022/01/06 09:35:30;;;;;;;14.13;4.38;;;;;;;1.41;83.36;97596.22;5024328;28;20578;-63
2022/01/06 09:37:57;;;;;;;15.85;5.57;;;;;;;1.42;83.86;97598.72;5023549;28;20085;-63
2022/01/06 09:40:25;;;;;;;10.35;3.72;;;;;;;1.42;82.59;97604.06;5021353;28;20041;-62
2022/01/06 09:42:54;;;;;;;16.58;4.07;;;;;;;1.43;82.85;97599.53;5023897;28;20042;-63
2022/01/06 09:45:25;;;;;;;10.23;3.47;;;;;;;1.42;82.82;97604.06;5024070;28;20464;-63
2022/01/06 09:47:52;;;;;;;12.80;3.30;;;;;;;1.50;82.91;97608.44;5035086;28;20041;-62
2022/01/06 09:50:19;;;;;;;9.55;3.40;;;;;;;1.53;83.05;97609.91;5031544;28;20041;-63
2022/01/06 09:52:47;;;;;;;14.90;4.63;;;;;;;1.62;82.11;97608.78;5021379;28;20176;-63
2022/01/06 09:55:14;;;;;;;9.82;3.25;;;;;;;1.71;82.20;97614.84;5018304;28;20033;-63
2022/01/06 09:57:57;;;;;;;6.75;3.33;;;;;;;1.67;81.62;97606.38;5022008;28;20107;-63
2022/01/06 10:00:25;;;;;;;11.00;3.78;;;;;;;1.59;81.11;97619.00;5023331;28;20060;-63
2022/01/06 10:02:56;;;;;;;14.07;3.78;;;;;;;1.45;81.85;97613.53;5019982;28;20068;-63
2022/01/06 10:05:24;;;;;;;9.98;3.50;;;;;;;1.32;82.92;97618.72;5028415;28;20071;-63
2022/01/06 10:07:54;;;;;;;9.98;3.47;;;;;;;1.36;82.48;97610.13;5021714;28;20049;-64
2022/01/06 10:10:25;;;;;;;9.55;3.05;;;;;;;1.42;83.34;97613.88;5023471;28;20049;-64
2022/01/06 10:12:58;;;;;;;7.28;3.55;;;;;;;1.43;81.84;97613.72;5024376;28;20045;-64
2022/01/06 10:15:28;;;;;;;7.63;3.00;;;;;;;1.58;81.74;97618.19;5021919;28;20049;-63
2022/01/06 10:17:55;;;;;;;13.15;3.50;;;;;;;1.70;80.91;97615.88;5023768;28;20128;-63
2022/01/06 10:20:27;;;;;;;7.38;2.75;;;;;;;1.86;81.03;97614.78;5022669;28;20129;-64
2022/01/06 10:22:57;;;;;;;5.28;2.88;;;;;;;1.99;80.71;97615.94;5023427;28;20484;-63
2022/01/06 10:25:28;;;;;;;8.93;3.45;;;;;;;2.13;81.06;97622.25;5008100;28;20041;-61
2022/01/06 10:28:16;;;;;;;6.00;2.47;;;;;;;2.17;80.00;97618.16;5018960;28;20072;-67
2022/01/06 10:30:48;;;;;;;12.32;4.20;;;;;;;2.23;80.30;97614.72;5024818;28;20049;-65
2022/01/06 10:33:19;;;;;;;;;;;;;;;2.36;78.32;97614.00;5017660;28;20230;-66
2022/01/06 10:35:46;;;;;;;7.78;2.78;;;;;;;2.21;78.23;97622.94;5022021;28;19921;-66
2022/01/06 10:38:24;;;;;;;5.47;2.55;;;;;;;2.22;78.25;97621.09;5029653;28;20041;-64
2022/01/06 10:40:51;;;;;;;9.52;2.90;;;;;;;2.05;78.94;97626.69;5028987;28;20119;-64
2022/01/06 10:43:33;;;;;;;8.52;2.67;;;;;;;1.97;78.62;97620.63;5026543;28;20042;-65
2022/01/06 10:46:02;;;;;;;7.75;2.67;;;;;;;1.69;79.77;97617.69;5015912;28;20468;-63
2022/01/06 10:48:29;;;;;;;6.60;2.53;;;;;;;1.74;80.03;97616.31;5022762;28;20088;-63
2022/01/06 10:50:58;;;;;;;8.18;2.80;;;;;;;1.69;80.07;97623.03;5025885;28;20033;-64
2022/01/06 10:53:26;;;;;;;7.07;2.28;;;;;;;1.76;78.91;97624.94;5021567;28;20639;-64
2022/01/06 10:55:53;;;;;;;6.22;2.40;;;;;;;1.92;79.60;97618.56;5029313;28;20041;-62
2022/01/06 10:58:25;;;;;;;5.03;2.25;;;;;;;1.94;78.71;97622.69;5022099;28;20394;-61
2022/01/06 11:00:58;;;;;;;6.20;2.63;;;;;;;2.03;78.35;97634.03;5025955;28;20049;-59
2022/01/06 11:03:28;;;;;;;4.75;2.10;;;;;;;2.34;79.25;97632.06;5026915;28;20105;-62
2022/01/06 11:05:58;;;;;;;7.68;2.92;;;;;;;2.57;77.03;97641.72;5020925;28;20563;-63
2022/01/06 11:08:31;;;;;;;6.85;2.42;;;;;;;2.49;76.67;97633.84;5027331;28;20164;-64
2022/01/06 11:13:46;;;;;;;12.77;5.25;;;;;;;2.40;77.24;97639.31;5026293;28;20069;-62
2022/01/06 11:16:16;;;;;;;20.05;6.30;;;;;;;2.65;76.23;97635.41;5026980;28;20049;-61
2022/01/06 11:19:03;;;;;;;11.48;3.00;;;;;;;2.94;75.32;97634.38;5021113;28;20049;-61
2022/01/06 11:21:39;;;;;;;33.08;12.30;;;;;;;3.05;77.55;97638.34;5018827;28;20091;-64
2022/01/06 11:24:23;;;;;;;7.68;3.70;;;;;;;3.31;74.26;97638.69;5016745;28;20041;-61
2022/01/06 11:26:57;;;;;;;10.25;3.17;;;;;;;3.10;74.19;97638.56;5024170;28;20054;-63
2022/01/06 11:29:34;;;;;;;13.25;4.78;;;;;;;3.03;75.11;97642.25;5026700;28;20037;-63
2022/01/06 11:32:04;;;;;;;11.48;2.90;;;;;;;3.17;74.87;97641.28;5031017;28;20133;-64
2022/01/06 11:34:38;;;;;;;8.48;3.50;;;;;;;2.85;75.63;97644.38;5030818;28;20045;-65
2022/01/06 11:37:14;;;;;;;8.52;4.18;;;;;;;2.70;76.67;97643.69;5026579;28;20045;-64
2022/01/06 11:39:42;;;;;;;10.98;5.57;;;;;;;2.60;78.07;97630.63;5025725;28;20500;-64
2022/01/06 11:42:17;;;;;;;13.82;3.70;;;;;;;2.62;76.57;97641.97;5026467;28;20061;-63
2022/01/06 11:44:53;;;;;;;7.65;2.63;;;;;;;2.74;75.79;97644.94;5026672;28;20504;-65
2022/01/06 11:47:34;;;;;;;5.97;3.13;;;;;;;2.67;76.51;97634.19;5025704;28;20049;-64
2022/01/06 11:50:09;;;;;;;11.90;3.42;;;;;;;2.43;75.17;97636.25;5025248;28;20049;-65
2022/01/06 11:52:36;;;;;;;9.48;2.92;;;;;;;2.59;75.65;97637.00;5019509;28;20045;-65
2022/01/06 11:55:14;;;;;;;4.13;1.90;;;;;;;2.67;76.72;97636.03;5020860;28;20045;-65
2022/01/06 11:57:41;;;;;;;6.28;2.10;;;;;;;2.73;73.51;97630.72;5023305;28;20045;-66
2022/01/06 12:00:17;;;;;;;6.88;2.05;;;;;;;2.98;74.36;97637.47;5012887;28;20042;-66